Time;durP1;ratioP1;P1;durP2;ratioP2;P2;SDS_P1;SDS_P2;PMS_P1;PMS_P2;Temp;Humidity;BMP_temperature;BMP_pressure;BME280_temperature;BME280_humidity;BME280_pressure;Samples;Min_cycle;Max_cycle;Signal;HPM_P1;HPM_P2
2021/09/28 01:34:05;;;;;;;7.88;1.20;;;18.40;99.90;;;;;;4353936;54;20659;-79
2021/09/28 01:52:01;;;;;;;14.25;1.88;;;15.40;99.90;;;;;;4330459;46;20757;-75
2021/09/28 01:56:03;;;;;;;8.82;1.42;;;14.80;99.90;;;;;;4327149;54;20039;-74
2021/09/28 02:00:06;;;;;;;9.35;1.45;;;14.20;99.90;;;;;;4327273;39;20332;-74
2021/09/28 02:04:13;;;;;;;9.05;1.40;;;14.20;99.90;;;;;;4329067;54;20108;-74
2021/09/28 02:08:15;;;;;;;7.05;1.45;;;14.10;99.90;;;;;;4331789;54;20035;-75
2021/09/28 02:12:17;;;;;;;15.18;1.48;;;14.00;99.90;;;;;;4329649;54;20605;-75
2021/09/28 02:16:19;;;;;;;12.43;1.50;;;14.00;99.90;;;;;;4326762;47;20041;-75
2021/09/28 02:20:21;;;;;;;7.80;1.10;;;14.00;99.90;;;;;;4326497;47;20791;-75
2021/09/28 02:24:23;;;;;;;12.75;1.17;;;13.90;99.90;;;;;;4327801;54;20965;-74
2021/09/28 02:28:25;;;;;;;11.57;1.98;;;13.90;99.90;;;;;;4325871;47;20034;-75
2021/09/28 02:32:27;;;;;;;;;;;13.80;99.90;;;;;;4328070;54;20988;-73
2021/09/28 02:36:28;;;;;;;8.63;1.42;;;13.70;99.90;;;;;;4325814;39;20371;-74
2021/09/28 02:40:30;;;;;;;10.30;1.35;;;13.60;99.90;;;;;;4327419;54;20036;-74
2021/09/28 02:44:32;;;;;;;6.82;1.40;;;13.50;99.90;;;;;;4329788;54;20026;-75
2021/09/28 02:48:34;;;;;;;;;;;13.50;99.90;;;;;;4327994;47;20034;-73
2021/09/28 02:52:36;;;;;;;9.10;1.35;;;13.30;99.90;;;;;;4332078;54;19953;-77
2021/09/28 02:56:38;;;;;;;;;;;13.30;99.90;;;;;;4332612;54;20058;-75
2021/09/28 03:00:40;;;;;;;6.80;1.02;;;13.20;99.90;;;;;;4332649;39;20510;-76
2021/09/28 03:04:42;;;;;;;;;;;13.10;99.90;;;;;;4328622;47;20061;-75
2021/09/28 03:08:44;;;;;;;7.30;0.80;;;13.00;99.90;;;;;;4328839;54;19958;-75
2021/09/28 03:12:46;;;;;;;9.80;1.15;;;13.00;99.90;;;;;;4331016;54;20072;-76
2021/09/28 03:16:49;;;;;;;9.95;1.20;;;12.90;99.90;;;;;;4333183;47;20038;-75
2021/09/28 03:20:51;;;;;;;8.15;1.23;;;12.80;99.90;;;;;;4332289;54;20125;-75
2021/09/28 03:24:53;;;;;;;4.38;0.95;;;13.00;99.90;;;;;;4327118;54;20102;-73
2021/09/28 03:28:54;;;;;;;4.65;0.90;;;12.70;99.90;;;;;;4329296;54;20027;-75
2021/09/28 03:32:56;;;;;;;5.07;1.10;;;12.70;99.90;;;;;;4329219;39;20507;-75
2021/09/28 03:36:58;;;;;;;6.82;1.70;;;12.70;99.90;;;;;;4332702;54;21059;-76
2021/09/28 03:41:00;;;;;;;9.93;1.40;;;12.60;99.90;;;;;;4330278;54;20061;-76
2021/09/28 03:45:03;;;;;;;;;;;12.50;99.90;;;;;;4330334;54;20457;-75
2021/09/28 03:49:05;;;;;;;6.25;1.00;;;12.50;99.90;;;;;;4330652;39;20313;-75
2021/09/28 03:53:07;;;;;;;7.05;0.90;;;12.40;99.90;;;;;;4328565;47;20046;-76
2021/09/28 03:57:09;;;;;;;6.07;1.15;;;12.40;99.90;;;;;;4332590;39;20424;-76
2021/09/28 04:01:11;;;;;;;5.35;0.90;;;12.40;99.90;;;;;;4330645;47;20038;-75
2021/09/28 04:05:14;;;;;;;8.23;1.50;;;12.30;99.90;;;;;;4328467;54;20035;-76
2021/09/28 04:09:16;;;;;;;6.15;1.05;;;12.30;99.90;;;;;;4327962;54;20598;-75
2021/09/28 04:13:18;;;;;;;;;;;12.20;99.90;;;;;;4328280;54;20048;-75
2021/09/28 04:17:20;;;;;;;7.60;1.30;;;12.10;99.90;;;;;;4326179;54;19951;-74
2021/09/28 04:21:24;;;;;;;11.23;1.90;;;12.10;99.90;;;;;;4324341;47;20074;-75
2021/09/28 04:25:26;;;;;;;8.05;1.55;;;12.10;99.90;;;;;;4324814;54;20038;-75
2021/09/28 04:29:28;;;;;;;5.95;1.00;;;12.10;99.90;;;;;;4326769;54;20082;-74
2021/09/28 04:33:30;;;;;;;7.93;1.08;;;12.10;99.90;;;;;;4326053;54;20042;-75
2021/09/28 04:37:32;;;;;;;3.97;0.70;;;12.00;99.90;;;;;;4328228;54;20134;-75
2021/09/28 04:41:34;;;;;;;9.18;1.55;;;11.90;99.90;;;;;;4331585;54;20038;-76
2021/09/28 04:45:36;;;;;;;7.35;1.70;;;12.40;99.90;;;;;;4330488;54;20627;-75
2021/09/28 04:49:37;;;;;;;3.67;1.10;;;11.80;99.90;;;;;;4328921;47;20077;-75
2021/09/28 04:53:39;;;;;;;6.07;1.30;;;11.80;99.90;;;;;;4326965;54;20643;-75
2021/09/28 04:57:41;;;;;;;5.30;1.10;;;11.80;99.90;;;;;;4330793;39;20544;-75
2021/09/28 05:01:43;;;;;;;6.75;1.13;;;11.80;99.90;;;;;;4331553;47;20029;-74
2021/09/28 05:05:47;;;;;;;6.28;1.25;;;11.80;99.90;;;;;;4340390;54;20058;-78
2021/09/28 05:09:49;;;;;;;5.90;0.90;;;11.80;99.90;;;;;;4343512;54;20050;-81
2021/09/28 05:13:51;;;;;;;5.18;0.95;;;11.80;99.90;;;;;;4345523;54;20031;-82
2021/09/28 05:17:53;;;;;;;4.72;1.02;;;11.70;99.90;;;;;;4345701;47;20034;-78
2021/09/28 05:21:55;;;;;;;12.80;1.67;;;11.70;99.90;;;;;;4345400;54;20061;-79
2021/09/28 05:25:58;;;;;;;6.25;1.20;;;11.70;99.90;;;;;;4348057;54;20796;-75
2021/09/28 05:30:00;;;;;;;9.32;1.33;;;11.80;99.90;;;;;;4348273;54;20049;-78
2021/09/28 05:34:02;;;;;;;6.68;1.25;;;11.80;99.90;;;;;;4349132;47;20050;-78
2021/09/28 05:38:04;;;;;;;8.48;1.42;;;11.70;99.90;;;;;;4346488;39;20780;-75
2021/09/28 05:42:06;;;;;;;6.50;1.50;;;13.20;99.90;;;;;;4347546;54;20042;-75
2021/09/28 05:46:08;;;;;;;10.70;2.28;;;11.80;99.90;;;;;;4348707;54;20042;-76
2021/09/28 05:50:11;;;;;;;;;;;11.80;99.90;;;;;;4344877;54;20074;-75
2021/09/28 05:54:17;;;;;;;12.77;1.48;;;11.90;99.90;;;;;;4345155;47;19953;-75
2021/09/28 05:58:19;;;;;;;7.45;1.73;;;11.90;99.90;;;;;;4344957;54;20038;-78
2021/09/28 06:02:21;;;;;;;13.10;2.15;;;11.90;99.90;;;;;;4343925;54;20647;-77
2021/09/28 06:06:27;;;;;;;12.57;1.85;;;11.90;99.90;;;;;;4347754;39;20523;-78
2021/09/28 06:10:29;;;;;;;10.30;2.38;;;12.70;99.90;;;;;;4344188;47;20026;-78
2021/09/28 06:14:33;;;;;;;13.35;1.88;;;11.90;99.90;;;;;;4344432;54;20042;-77
2021/09/28 06:18:35;;;;;;;6.90;1.67;;;13.70;99.90;;;;;;4345088;31;20776;-78
2021/09/28 06:22:37;;;;;;;;;;;11.90;99.90;;;;;;4343816;47;20030;-78
2021/09/28 06:26:39;;;;;;;14.53;2.47;;;12.60;99.90;;;;;;4344441;54;19942;-78
2021/09/28 06:30:42;;;;;;;11.85;2.50;;;12.00;99.90;;;;;;4347646;54;20528;-77
2021/09/28 06:34:45;;;;;;;14.48;2.00;;;12.00;99.90;;;;;;4346157;54;20849;-78
2021/09/28 06:38:47;;;;;;;7.03;1.58;;;12.80;99.90;;;;;;4347783;46;20027;-78
2021/09/28 06:42:49;;;;;;;9.65;2.05;;;12.10;99.90;;;;;;4349050;47;20026;-78
2021/09/28 06:46:51;;;;;;;7.78;1.50;;;12.10;99.90;;;;;;4346571;54;20030;-78
2021/09/28 06:50:53;;;;;;;7.70;1.58;;;12.10;99.90;;;;;;4346840;54;20694;-78
2021/09/28 06:54:55;;;;;;;9.25;1.73;;;13.40;99.90;;;;;;4345155;54;20705;-77
2021/09/28 06:58:58;;;;;;;6.85;1.40;;;12.20;99.90;;;;;;4344902;54;20948;-78
2021/09/28 07:03:00;;;;;;;7.78;1.52;;;12.30;99.90;;;;;;4350236;47;20053;-84
2021/09/28 07:11:25;;;;;;;16.55;2.33;;;12.40;99.90;;;;;;4353433;54;19995;-77
2021/09/28 07:15:28;;;;;;;;;;;14.40;99.90;;;;;;4351626;47;20022;-76
2021/09/28 07:19:30;;;;;;;9.10;1.55;;;12.70;99.90;;;;;;4351572;47;19966;-80
2021/09/28 07:23:33;;;;;;;10.32;1.67;;;12.90;99.90;;;;;;4351515;47;20030;-78
2021/09/28 07:27:35;;;;;;;9.98;1.90;;;14.20;99.90;;;;;;4351189;47;20054;-76
2021/09/28 07:31:37;;;;;;;10.88;1.58;;;13.40;99.90;;;;;;4352041;47;20011;-75
2021/09/28 07:35:43;;;;;;;9.85;1.85;;;14.90;99.90;;;;;;4351870;46;20018;-77
2021/09/28 07:39:45;;;;;;;8.38;2.15;;;15.10;99.90;;;;;;4350772;47;20853;-76
2021/09/28 07:43:47;;;;;;;7.50;2.03;;;14.40;99.90;;;;;;4350750;54;21148;-77
2021/09/28 07:47:50;;;;;;;11.00;1.40;;;14.60;99.90;;;;;;4350915;54;20039;-76
2021/09/28 07:51:53;;;;;;;9.40;1.40;;;16.60;99.90;;;;;;4353610;39;20277;-78
2021/09/28 07:55:55;;;;;;;15.80;1.90;;;14.70;99.90;;;;;;4350883;47;20010;-76
2021/09/28 07:59:57;;;;;;;5.82;1.15;;;15.00;99.90;;;;;;4350737;47;21318;-76
2021/09/28 08:04:04;;;;;;;12.57;1.80;;;15.10;99.90;;;;;;4359189;39;20698;-76
2021/09/28 08:08:06;;;;;;;11.95;1.20;;;15.30;99.90;;;;;;4350731;54;20039;-77
2021/09/28 08:12:09;;;;;;;10.02;1.45;;;15.30;99.90;;;;;;4352123;54;20865;-77
2021/09/28 08:16:12;;;;;;;9.52;1.10;;;15.50;99.90;;;;;;4354189;39;21153;-77
2021/09/28 08:20:16;;;;;;;8.63;1.17;;;15.80;99.90;;;;;;4352496;46;20018;-77
2021/09/28 08:24:19;;;;;;;8.45;1.40;;;15.90;99.90;;;;;;4352997;46;20038;-76
2021/09/28 08:32:47;;;;;;;;;;;16.00;99.90;;;;;;4352491;54;20024;-77
2021/09/28 08:36:49;;;;;;;6.63;1.05;;;16.50;99.90;;;;;;4353402;46;19938;-77
2021/09/28 08:40:51;;;;;;;9.90;0.90;;;15.10;99.90;;;;;;4359460;39;20857;-77
2021/09/28 08:44:54;;;;;;;5.45;0.80;;;18.00;99.90;;;;;;4353270;47;20033;-77
2021/09/28 08:48:56;;;;;;;8.82;1.33;;;17.10;99.90;;;;;;4353270;47;20010;-77
2021/09/28 08:52:59;;;;;;;8.40;1.73;;;17.10;99.90;;;;;;4353224;54;20022;-78
2021/09/28 08:57:02;;;;;;;7.10;1.13;;;17.40;99.90;;;;;;4353161;39;21143;-77
2021/09/28 09:01:06;;;;;;;12.05;1.30;;;17.50;99.90;;;;;;4360787;39;20778;-77
2021/09/28 09:05:14;;;;;;;5.18;1.05;;;17.60;99.90;;;;;;4353105;54;21146;-76
2021/09/28 09:09:16;;;;;;;8.63;1.40;;;18.80;99.90;;;;;;4353669;54;20854;-77
2021/09/28 09:13:32;;;;;;;7.30;1.00;;;17.90;99.90;;;;;;4353464;54;20035;-76
2021/09/28 09:17:36;;;;;;;6.63;1.23;;;18.20;99.90;;;;;;4354090;54;20038;-77
2021/09/28 09:21:54;;;;;;;5.93;1.58;;;18.30;99.90;;;;;;4362233;39;20800;-77
2021/09/28 09:26:08;;;;;;;9.68;1.50;;;18.50;99.90;;;;;;4353504;47;20030;-78
2021/09/28 09:30:20;;;;;;;7.10;1.10;;;18.70;99.90;;;;;;4353586;54;20041;-77
2021/09/28 09:34:24;;;;;;;4.57;0.80;;;18.90;99.90;;;;;;4353681;46;20015;-76
2021/09/28 09:38:26;;;;;;;8.68;1.20;;;18.90;99.90;;;;;;4353738;47;20054;-77
2021/09/28 09:42:29;;;;;;;4.13;0.70;;;19.40;99.90;;;;;;4354023;46;20010;-77
2021/09/28 09:46:51;;;;;;;5.47;1.17;;;20.00;99.90;;;;;;4353510;47;20075;-76
2021/09/28 09:50:56;;;;;;;4.93;0.80;;;19.10;99.90;;;;;;4353486;54;20031;-77
2021/09/28 09:54:58;;;;;;;4.03;0.80;;;20.60;99.90;;;;;;4353206;47;20030;-76
2021/09/28 09:59:00;;;;;;;4.68;0.80;;;20.20;99.90;;;;;;4353536;47;20022;-76
2021/09/28 10:03:02;;;;;;;4.57;0.82;;;20.20;99.90;;;;;;4353596;47;20052;-77
2021/09/28 10:07:06;;;;;;;6.22;0.90;;;19.20;99.90;;;;;;4352968;54;20055;-76
2021/09/28 10:11:08;;;;;;;6.20;1.10;;;19.20;99.90;;;;;;4353356;54;20034;-77
2021/09/28 10:15:15;;;;;;;5.18;1.10;;;19.40;99.90;;;;;;4353664;47;20014;-79
2021/09/28 10:19:27;;;;;;;5.85;0.70;;;19.80;99.90;;;;;;4353766;54;20043;-77
2021/09/28 10:23:29;;;;;;;4.88;0.70;;;19.70;99.90;;;;;;4353756;46;20030;-79
2021/09/28 10:27:31;;;;;;;;;;;19.70;99.90;;;;;;4353797;46;20011;-82
2021/09/28 10:31:38;;;;;;;5.93;0.90;;;19.70;99.90;;;;;;4353644;54;19967;-80
2021/09/28 10:35:58;;;;;;;;;;;19.50;99.90;;;;;;4353364;47;20011;-78
2021/09/28 10:40:00;;;;;;;6.45;0.70;;;19.20;99.90;;;;;;4353506;54;19942;-78
2021/09/28 10:44:27;;;;;;;4.03;0.77;;;18.90;99.90;;;;;;4353569;46;20015;-78
2021/09/28 10:48:31;;;;;;;7.60;0.85;;;18.80;99.90;;;;;;4355279;39;20798;-78
2021/09/28 10:52:35;;;;;;;4.28;1.05;;;18.80;99.90;;;;;;4357902;39;21061;-77
2021/09/28 10:56:50;;;;;;;4.32;0.80;;;19.00;99.90;;;;;;4353225;54;20045;-78
2021/09/28 11:00:54;;;;;;;6.50;0.80;;;19.20;99.90;;;;;;4353472;47;20825;-78
2021/09/28 11:05:36;;;;;;;7.35;1.00;;;19.50;99.70;;;;;;4353100;54;20058;-79
2021/09/28 11:09:46;;;;;;;6.03;0.70;;;19.70;99.90;;;;;;4353486;54;20078;-79
2021/09/28 11:13:49;;;;;;;2.75;0.63;;;19.70;99.20;;;;;;4353650;54;20097;-79
2021/09/28 11:17:52;;;;;;;6.95;0.70;;;20.00;98.80;;;;;;4353154;54;20034;-78
2021/09/28 11:21:54;;;;;;;3.72;0.50;;;19.00;99.00;;;;;;4357846;39;20864;-80
2021/09/28 11:25:57;;;;;;;;;;;19.50;99.20;;;;;;4353543;54;20038;-79
2021/09/28 11:30:12;;;;;;;5.75;0.65;;;19.60;99.90;;;;;;4353710;46;19923;-80
2021/09/28 11:34:24;;;;;;;6.32;0.63;;;19.60;99.00;;;;;;4352978;54;20041;-78
2021/09/28 11:38:49;;;;;;;3.80;0.65;;;19.70;97.90;;;;;;4352697;54;20035;-80
2021/09/28 11:42:51;;;;;;;5.55;0.75;;;19.80;97.70;;;;;;4352703;47;20029;-79
2021/09/28 11:46:58;;;;;;;4.43;0.93;;;20.20;98.50;;;;;;4352536;47;20033;-80
2021/09/28 11:51:11;;;;;;;4.15;0.60;;;20.10;98.70;;;;;;4352555;54;20014;-78
2021/09/28 11:55:22;;;;;;;6.53;0.60;;;19.20;98.60;;;;;;4352571;47;20011;-78
2021/09/28 11:59:24;;;;;;;6.93;0.50;;;20.20;98.00;;;;;;4353063;47;20027;-80
2021/09/28 12:03:30;;;;;;;2.67;0.60;;;21.70;97.70;;;;;;4352698;54;20037;-78
2021/09/28 12:12:04;;;;;;;6.93;0.70;;;20.30;97.50;;;;;;4352909;47;20010;-79
2021/09/28 12:16:14;;;;;;;4.72;0.60;;;20.40;97.70;;;;;;4356407;31;21005;-78
2021/09/28 12:20:23;;;;;;;7.38;1.00;;;20.70;97.20;;;;;;4352444;47;20046;-79
2021/09/28 12:24:39;;;;;;;3.63;0.70;;;20.80;96.90;;;;;;4352424;47;20015;-80
2021/09/28 12:28:46;;;;;;;2.95;0.50;;;21.00;96.00;;;;;;4352622;47;20026;-80
2021/09/28 12:32:49;;;;;;;4.13;0.47;;;22.20;96.10;;;;;;4352595;47;20022;-81
2021/09/28 12:37:02;;;;;;;4.07;0.50;;;21.20;95.70;;;;;;4352093;47;20074;-78
2021/09/28 12:41:06;;;;;;;6.18;0.70;;;21.20;96.20;;;;;;4362006;39;21099;-79
2021/09/28 12:45:14;;;;;;;5.25;0.80;;;23.40;95.50;;;;;;4351997;54;20034;-79
2021/09/28 12:49:38;;;;;;;4.65;0.90;;;21.30;95.40;;;;;;4352255;47;20040;-80
2021/09/28 12:53:40;;;;;;;2.80;0.70;;;21.30;97.00;;;;;;4352229;54;20448;-79
2021/09/28 12:57:44;;;;;;;4.80;0.70;;;19.90;95.00;;;;;;4352803;51;20015;-80
2021/09/28 13:01:50;;;;;;;3.05;0.65;;;20.10;94.70;;;;;;4354140;46;20033;-79
2021/09/28 13:05:57;;;;;;;2.45;0.52;;;21.40;95.20;;;;;;4353531;47;20011;-79
2021/09/28 13:09:59;;;;;;;3.60;0.52;;;22.30;95.70;;;;;;4354102;54;20037;-80
2021/09/28 13:14:01;;;;;;;3.65;0.55;;;21.40;95.50;;;;;;4354041;54;20082;-80
2021/09/28 13:18:03;;;;;;;3.75;0.77;;;22.40;94.90;;;;;;4353779;54;20031;-79
2021/09/28 13:22:06;;;;;;;4.15;0.63;;;21.70;95.50;;;;;;4354152;46;20400;-79
2021/09/28 13:26:08;;;;;;;4.10;0.70;;;21.50;95.60;;;;;;4354127;54;20029;-80
2021/09/28 13:30:10;;;;;;;7.15;0.55;;;21.50;95.20;;;;;;4354138;47;20027;-80
2021/09/28 13:34:12;;;;;;;3.65;0.75;;;21.50;94.70;;;;;;4354211;46;20125;-80
2021/09/28 13:38:15;;;;;;;5.65;0.75;;;21.50;94.30;;;;;;4353741;47;20050;-79
2021/09/28 13:42:33;;;;;;;3.67;0.70;;;21.60;94.30;;;;;;4354555;46;20039;-79
2021/09/28 13:46:35;;;;;;;4.70;0.93;;;21.60;94.70;;;;;;4354196;46;20035;-79
2021/09/28 13:50:38;;;;;;;5.15;0.75;;;23.90;95.10;;;;;;4358096;39;20903;-79
2021/09/28 13:54:40;;;;;;;5.68;0.60;;;21.60;93.70;;;;;;4353458;54;20030;-79
2021/09/28 13:58:50;;;;;;;1.85;0.50;;;21.80;93.90;;;;;;4353793;47;20037;-80
2021/09/28 14:02:55;;;;;;;6.10;0.80;;;21.60;94.30;;;;;;4353695;46;20015;-79
2021/09/28 14:06:57;;;;;;;5.82;0.77;;;23.00;94.20;;;;;;4353244;47;20023;-80
2021/09/28 14:10:59;;;;;;;4.15;0.88;;;21.30;93.90;;;;;;4353571;54;20034;-79
2021/09/28 14:15:03;;;;;;;2.45;0.57;;;22.50;94.50;;;;;;4353731;54;20035;-80
2021/09/28 14:19:05;;;;;;;3.75;1.05;;;21.20;95.00;;;;;;4353754;54;20030;-81
2021/09/28 14:23:07;;;;;;;6.50;0.60;;;23.10;95.30;;;;;;4353589;47;20015;-79
2021/09/28 14:27:09;;;;;;;4.72;0.68;;;21.70;94.20;;;;;;4354045;46;20022;-79
2021/09/28 14:31:12;;;;;;;3.17;0.68;;;21.30;93.70;;;;;;4353980;54;20037;-80
2021/09/28 14:35:15;;;;;;;2.67;0.65;;;21.30;93.40;;;;;;4352933;47;20017;-79
2021/09/28 14:39:26;;;;;;;3.78;0.68;;;22.10;93.30;;;;;;4353893;46;20034;-78
2021/09/28 14:43:31;;;;;;;5.43;0.63;;;21.20;93.50;;;;;;4353517;47;20019;-79
2021/09/28 14:47:33;;;;;;;4.30;0.65;;;21.10;93.90;;;;;;4353591;54;20034;-79
2021/09/28 14:51:35;;;;;;;3.30;0.60;;;20.90;94.00;;;;;;4353254;54;20129;-80
2021/09/28 14:55:37;;;;;;;4.18;0.50;;;20.80;94.30;;;;;;4353602;46;20027;-80
2021/09/28 14:59:39;;;;;;;7.07;0.57;;;20.70;94.20;;;;;;4353377;46;20029;-80
2021/09/28 15:03:41;;;;;;;2.20;0.50;;;22.10;94.90;;;;;;4352798;47;20026;-81
2021/09/28 15:08:03;;;;;;;;;;;20.40;94.30;;;;;;4353677;54;20019;-80
2021/09/28 15:12:08;;;;;;;;;;;20.30;96.40;;;;;;4353653;54;19966;-80
2021/09/28 15:16:13;;;;;;;3.35;0.57;;;20.10;97.20;;;;;;4353099;46;19923;-79
2021/09/28 15:20:16;;;;;;;5.43;0.73;;;21.60;95.70;;;;;;4353078;54;20096;-79
2021/09/28 15:24:19;;;;;;;4.07;0.77;;;20.60;95.00;;;;;;4353343;54;20022;-82
2021/09/28 15:28:22;;;;;;;3.80;0.68;;;21.20;95.10;;;;;;4353123;47;20014;-80
2021/09/28 15:32:24;;;;;;;3.65;0.60;;;20.90;95.00;;;;;;4353454;46;20006;-79
2021/09/28 15:36:30;;;;;;;6.32;0.80;;;20.00;94.80;;;;;;4353152;54;21134;-79
2021/09/28 15:40:32;;;;;;;5.53;0.73;;;18.70;94.60;;;;;;4353482;54;20018;-80
2021/09/28 15:44:34;;;;;;;6.03;1.10;;;20.30;94.90;;;;;;4353019;47;20070;-80
2021/09/28 15:48:36;;;;;;;4.57;0.90;;;20.70;95.00;;;;;;4353194;47;20030;-80
2021/09/28 15:52:39;;;;;;;5.30;1.00;;;21.00;95.00;;;;;;4353109;47;20015;-79
2021/09/28 15:56:41;;;;;;;5.90;0.88;;;19.80;94.70;;;;;;4352904;54;20022;-80
2021/09/28 16:00:43;;;;;;;6.15;0.98;;;19.90;94.70;;;;;;4352962;47;20031;-81
2021/09/28 16:04:47;;;;;;;3.90;0.80;;;19.50;94.30;;;;;;4352777;47;20082;-80
2021/09/28 16:08:53;;;;;;;7.35;0.80;;;19.80;94.60;;;;;;4352828;54;20019;-79
2021/09/28 16:12:54;;;;;;;5.88;0.95;;;19.90;94.80;;;;;;4352841;54;20035;-79
2021/09/28 16:16:56;;;;;;;5.57;0.85;;;19.40;94.60;;;;;;4352617;54;20029;-81
2021/09/28 16:21:00;;;;;;;3.28;0.60;;;19.70;94.70;;;;;;4354469;39;20801;-78
2021/09/28 16:25:02;;;;;;;4.57;0.90;;;20.30;95.20;;;;;;4352476;54;20026;-80
2021/09/28 16:29:04;;;;;;;5.00;0.63;;;19.20;95.00;;;;;;4351891;47;21340;-81
2021/09/28 16:33:07;;;;;;;3.65;0.60;;;19.10;95.20;;;;;;4354848;39;20821;-80
2021/09/28 16:37:08;;;;;;;4.38;1.05;;;19.40;95.50;;;;;;4355669;39;20770;-81
2021/09/28 16:41:11;;;;;;;5.75;1.17;;;18.50;95.70;;;;;;4349997;46;20006;-80
2021/09/28 16:45:13;;;;;;;4.95;0.75;;;18.80;95.90;;;;;;4353082;47;20884;-79
2021/09/28 16:49:15;;;;;;;3.13;0.75;;;18.70;96.00;;;;;;4353196;46;20105;-79
2021/09/28 16:53:17;;;;;;;4.32;0.93;;;18.60;96.00;;;;;;4353237;54;20019;-80
2021/09/28 16:57:20;;;;;;;5.40;1.05;;;18.40;96.20;;;;;;4353111;47;20034;-80
2021/09/28 17:01:22;;;;;;;3.67;1.27;;;20.50;96.90;;;;;;4363049;39;20752;-80
2021/09/28 17:05:24;;;;;;;7.20;1.40;;;18.30;96.40;;;;;;4353285;46;20011;-79
2021/09/28 17:09:27;;;;;;;;;;;18.10;96.70;;;;;;4353314;54;20041;-78
2021/09/28 17:13:29;;;;;;;5.65;1.20;;;17.90;97.20;;;;;;4353208;54;20766;-80
2021/09/28 17:17:35;;;;;;;;;;;17.80;96.90;;;;;;4353608;47;20027;-82
2021/09/28 17:21:37;;;;;;;3.13;0.90;;;17.60;97.30;;;;;;4353084;54;20762;-79
2021/09/28 17:25:39;;;;;;;5.75;1.42;;;17.40;97.00;;;;;;4354521;39;20774;-79
2021/09/28 17:29:41;;;;;;;9.43;1.58;;;18.00;97.30;;;;;;4353310;54;20034;-79
2021/09/28 17:33:43;;;;;;;;;;;17.30;97.10;;;;;;4353357;54;20026;-80
2021/09/28 17:37:48;;;;;;;8.68;1.75;;;17.20;97.50;;;;;;4353311;54;19927;-82
2021/09/28 17:41:52;;;;;;;3.30;1.45;;;17.60;97.50;;;;;;4353273;46;20018;-81
2021/09/28 17:45:54;;;;;;;5.15;1.85;;;19.50;98.20;;;;;;4352802;54;21221;-80
2021/09/28 17:49:57;;;;;;;;;;;16.80;97.50;;;;;;4353708;46;20026;-79
2021/09/28 17:54:04;;;;;;;6.75;2.30;;;16.60;97.70;;;;;;4353048;47;19939;-79
2021/09/28 17:58:07;;;;;;;7.45;2.17;;;16.70;97.80;;;;;;4353627;46;20056;-79
2021/09/28 18:02:11;;;;;;;7.32;2.58;;;16.50;97.90;;;;;;4353064;47;20038;-78
2021/09/28 18:06:14;;;;;;;6.38;2.47;;;19.00;98.70;;;;;;4353066;46;20038;-79
2021/09/28 18:10:19;;;;;;;5.32;2.05;;;16.20;98.00;;;;;;4352838;54;20078;-80
2021/09/28 18:14:21;;;;;;;6.72;1.98;;;16.30;98.00;;;;;;4353224;46;20994;-80
2021/09/28 18:18:23;;;;;;;7.07;1.55;;;16.30;98.10;;;;;;4353088;46;20052;-80
2021/09/28 18:22:26;;;;;;;;;;;18.00;98.50;;;;;;4352871;54;20051;-79
2021/09/28 18:26:28;;;;;;;6.03;1.50;;;16.20;98.10;;;;;;4352826;54;19942;-79
2021/09/28 18:30:30;;;;;;;;;;;18.10;98.80;;;;;;4353341;54;21182;-78
2021/09/28 18:34:32;;;;;;;5.93;1.67;;;16.10;98.20;;;;;;4352660;47;19960;-78
2021/09/28 18:38:35;;;;;;;5.88;1.58;;;16.00;98.20;;;;;;4353476;46;20049;-78
2021/09/28 18:46:52;;;;;;;6.22;1.52;;;16.10;98.30;;;;;;4352541;54;21078;-78
2021/09/28 18:50:56;;;;;;;4.28;1.30;;;16.00;98.30;;;;;;4353267;54;20019;-79
2021/09/28 18:55:04;;;;;;;4.68;1.10;;;16.00;98.30;;;;;;4353109;54;20034;-79
2021/09/28 18:59:10;;;;;;;8.43;1.60;;;15.90;98.30;;;;;;4353163;54;20044;-78
2021/09/28 19:03:12;;;;;;;5.22;1.45;;;15.90;98.30;;;;;;4352974;54;20022;-78
2021/09/28 19:07:16;;;;;;;3.63;1.50;;;17.40;98.60;;;;;;4361977;39;20607;-79
2021/09/28 19:11:19;;;;;;;6.30;1.75;;;16.60;98.40;;;;;;4353162;46;20019;-79
2021/09/28 19:15:22;;;;;;;4.22;1.17;;;16.10;98.30;;;;;;4353257;54;20018;-79
2021/09/28 19:19:25;;;;;;;5.95;1.90;;;16.70;98.50;;;;;;4353356;46;20018;-80
2021/09/28 19:23:31;;;;;;;4.20;1.23;;;15.50;98.20;;;;;;4353363;54;20014;-78
2021/09/28 19:27:33;;;;;;;5.88;1.85;;;15.60;98.20;;;;;;4353059;54;20046;-78
2021/09/28 19:31:35;;;;;;;;;;;15.50;98.40;;;;;;4354814;39;20611;-78
2021/09/28 19:35:37;;;;;;;6.47;1.73;;;15.50;98.70;;;;;;4352883;46;20011;-79
2021/09/28 19:39:47;;;;;;;5.32;1.35;;;16.30;98.60;;;;;;4352901;47;20697;-78
2021/09/28 19:43:50;;;;;;;4.55;1.75;;;16.20;98.90;;;;;;4352856;51;20034;-79
2021/09/28 19:47:53;;;;;;;6.25;1.85;;;15.40;98.50;;;;;;4353013;54;20035;-77
2021/09/28 19:51:56;;;;;;;4.65;1.45;;;15.30;98.50;;;;;;4353028;51;20018;-79
2021/09/28 19:56:10;;;;;;;3.85;1.60;;;15.40;98.60;;;;;;4355078;39;20670;-81
2021/09/28 20:00:29;;;;;;;4.90;1.50;;;15.30;98.60;;;;;;4352781;54;20046;-78
2021/09/28 20:38:58;;;;;;;7.00;1.50;;;14.80;99.40;;;;;;4353864;54;20053;-78
2021/09/28 20:43:00;;;;;;;7.25;1.70;;;14.10;99.40;;;;;;4355801;39;20338;-79
2021/09/28 20:47:03;;;;;;;6.15;1.83;;;14.70;99.50;;;;;;4354188;46;20030;-77
2021/09/28 20:51:05;;;;;;;7.60;1.80;;;14.60;99.50;;;;;;4353708;47;20055;-77
2021/09/28 20:55:08;;;;;;;7.43;1.77;;;14.60;99.60;;;;;;4353646;46;20968;-76
2021/09/28 20:59:13;;;;;;;6.45;2.30;;;14.60;99.50;;;;;;4353463;54;20041;-77
2021/09/28 21:03:19;;;;;;;7.07;1.92;;;14.50;99.50;;;;;;4354200;46;20031;-77
2021/09/28 21:07:21;;;;;;;4.15;1.45;;;14.60;99.60;;;;;;4353235;54;20897;-79
2021/09/28 21:11:23;;;;;;;;;;;15.80;99.90;;;;;;4354121;54;20015;-77
2021/09/28 21:15:26;;;;;;;7.40;1.75;;;14.50;99.90;;;;;;4353555;54;19927;-77
2021/09/28 21:19:29;;;;;;;6.78;1.73;;;15.00;99.80;;;;;;4353452;47;20019;-78
2021/09/28 21:23:32;;;;;;;4.63;1.65;;;14.40;99.60;;;;;;4353684;54;20019;-78
2021/09/28 21:27:34;;;;;;;4.90;2.33;;;14.30;99.70;;;;;;4353292;46;20046;-78
2021/09/28 21:31:37;;;;;;;4.97;1.90;;;14.20;99.90;;;;;;4353364;46;20010;-77
2021/09/28 21:35:53;;;;;;;7.72;2.15;;;13.80;99.60;;;;;;4353532;47;20051;-78
2021/09/28 21:39:55;;;;;;;9.68;2.00;;;15.20;99.90;;;;;;4353592;46;20026;-77
2021/09/28 21:43:57;;;;;;;8.23;2.30;;;15.30;99.90;;;;;;4353508;54;20023;-78
2021/09/28 21:47:59;;;;;;;8.55;2.50;;;15.60;99.90;;;;;;4353390;54;20031;-78
2021/09/28 21:52:01;;;;;;;5.55;2.03;;;15.90;99.90;;;;;;4353284;54;20030;-78
2021/09/28 21:56:03;;;;;;;;;;;14.20;99.90;;;;;;4353674;54;20101;-77
2021/09/28 22:00:11;;;;;;;7.00;2.10;;;14.10;99.60;;;;;;4353895;46;19938;-78
2021/09/28 22:04:13;;;;;;;8.23;2.70;;;14.10;99.70;;;;;;4352638;46;20801;-78
2021/09/28 22:08:15;;;;;;;8.90;2.15;;;14.10;99.90;;;;;;4353279;46;20037;-77
2021/09/28 22:12:18;;;;;;;;;;;14.10;99.80;;;;;;4353901;46;20026;-76
2021/09/28 22:16:20;;;;;;;7.57;2.38;;;14.00;99.90;;;;;;4353015;47;19938;-77
2021/09/28 22:20:23;;;;;;;;;;;13.80;99.90;;;;;;4353258;54;20034;-77
2021/09/28 22:24:25;;;;;;;8.52;3.10;;;13.70;99.90;;;;;;4353283;46;19929;-78
2021/09/28 22:28:27;;;;;;;7.57;2.45;;;14.80;99.90;;;;;;4352668;47;20027;-76
2021/09/28 22:32:28;;;;;;;;;;;13.90;99.70;;;;;;4353194;54;20018;-78
2021/09/28 22:36:30;;;;;;;7.43;2.40;;;14.00;99.80;;;;;;4352887;47;19946;-77
2021/09/28 22:40:32;;;;;;;9.35;2.22;;;13.60;99.60;;;;;;4352987;46;20027;-77
2021/09/28 22:44:35;;;;;;;6.30;2.13;;;13.90;99.60;;;;;;4353240;46;20044;-77
2021/09/28 22:48:38;;;;;;;6.93;2.22;;;15.80;99.90;;;;;;4352600;47;20034;-77
2021/09/28 22:52:40;;;;;;;4.93;1.77;;;14.30;99.90;;;;;;4360993;39;20766;-77
2021/09/28 22:56:42;;;;;;;7.85;2.13;;;13.80;99.70;;;;;;4353062;46;20022;-78
2021/09/28 23:00:44;;;;;;;;;;;15.90;99.90;;;;;;4352908;54;20026;-76
2021/09/28 23:04:47;;;;;;;6.70;2.20;;;13.60;99.90;;;;;;4352362;54;20002;-76
2021/09/28 23:08:50;;;;;;;7.80;2.25;;;13.60;99.70;;;;;;4353680;39;20730;-77
2021/09/28 23:12:52;;;;;;;7.57;2.22;;;13.60;99.70;;;;;;4353032;54;20055;-77
2021/09/28 23:16:54;;;;;;;6.07;2.20;;;15.20;99.90;;;;;;4353221;39;20789;-77
2021/09/28 23:20:56;;;;;;;6.65;2.05;;;13.60;99.80;;;;;;4352684;47;20050;-77
2021/09/28 23:24:58;;;;;;;5.53;1.77;;;13.60;99.80;;;;;;4352567;47;20027;-78
2021/09/28 23:29:00;;;;;;;;;;;13.60;99.80;;;;;;4353081;54;20026;-76
2021/09/28 23:33:02;;;;;;;9.07;3.25;;;13.60;99.90;;;;;;4352831;54;19942;-77
2021/09/28 23:37:04;;;;;;;7.50;2.13;;;13.50;99.90;;;;;;4352643;54;20031;-76
2021/09/28 23:41:06;;;;;;;;;;;14.30;99.90;;;;;;4352926;47;20034;-77
2021/09/28 23:45:08;;;;;;;6.65;2.38;;;14.10;99.90;;;;;;4352345;54;19942;-77
2021/09/28 23:49:10;;;;;;;7.10;2.15;;;13.50;99.90;;;;;;4358347;31;20868;-77
2021/09/28 23:53:12;;;;;;;5.70;2.22;;;13.30;99.90;;;;;;4360526;39;20871;-77
2021/09/28 23:57:14;;;;;;;9.32;3.20;;;13.40;99.90;;;;;;4352630;47;20799;-77
